sensor_id;sensor_type;location;lat;lon;timestamp;P1;P4;P2;P0;N10;N4;N25;N1;N05;TS
43196;SPS30;28816;49.852;18.282;2023-08-20T00:01:35;11.970000;;11.900000;11.340000;;;;;;
43196;SPS30;28816;49.852;18.282;2023-08-20T00:06:38;11.190000;;11.160000;10.660000;;;;;;
43196;SPS30;28816;49.852;18.282;2023-08-20T00:11:40;11.850000;;11.870000;11.150000;;;;;;
43196;SPS30;28816;49.852;18.282;2023-08-20T00:16:42;11.400000;;11.500000;10.730000;;;;;;
43196;SPS30;28816;49.852;18.282;2023-08-20T00:21:45;11.550000;;11.530000;10.940000;;;;;;
43196;SPS30;28816;49.852;18.282;2023-08-20T00:26:47;11.640000;;11.640000;11.040000;;;;;;
43196;SPS30;28816;49.852;18.282;2023-08-20T00:31:50;10.710000;;10.680000;10.160000;;;;;;
43196;SPS30;28816;49.852;18.282;2023-08-20T00:36:52;12.420000;;12.320000;11.850000;;;;;;
43196;SPS30;28816;49.852;18.282;2023-08-20T00:41:54;12.490000;;12.440000;11.840000;;;;;;
43196;SPS30;28816;49.852;18.282;2023-08-20T00:46:57;11.090000;;11.140000;10.480000;;;;;;
43196;SPS30;28816;49.852;18.282;2023-08-20T00:52:00;11.050000;;11.050000;10.430000;;;;;;
43196;SPS30;28816;49.852;18.282;2023-08-20T00:57:02;11.330000;;11.290000;10.700000;;;;;;
43196;SPS30;28816;49.852;18.282;2023-08-20T01:02:06;11.210000;;11.180000;10.660000;;;;;;
43196;SPS30;28816;49.852;18.282;2023-08-20T01:07:08;10.120000;;10.140000;9.570000;;;;;;
43196;SPS30;28816;49.852;18.282;2023-08-20T01:12:14;11.820000;;11.840000;11.170000;;;;;;
43196;SPS30;28816;49.852;18.282;2023-08-20T01:17:17;10.940000;;10.960000;10.360000;;;;;;
43196;SPS30;28816;49.852;18.282;2023-08-20T01:22:19;10.040000;;10.040000;9.440000;;;;;;
43196;SPS30;28816;49.852;18.282;2023-08-20T01:27:37;10.810000;;10.900000;10.130000;;;;;;
43196;SPS30;28816;49.852;18.282;2023-08-20T01:32:47;11.410000;;11.430000;10.780000;;;;;;
43196;SPS30;28816;49.852;18.282;2023-08-20T01:37:50;10.300000;;10.320000;9.730000;;;;;;
43196;SPS30;28816;49.852;18.282;2023-08-20T01:42:52;11.010000;;10.970000;10.410000;;;;;;
43196;SPS30;28816;49.852;18.282;2023-08-20T01:47:54;10.640000;;10.620000;10.050000;;;;;;
43196;SPS30;28816;49.852;18.282;2023-08-20T01:52:56;10.840000;;10.920000;10.150000;;;;;;
43196;SPS30;28816;49.852;18.282;2023-08-20T01:57:58;10.090000;;10.100000;9.590000;;;;;;
43196;SPS30;28816;49.852;18.282;2023-08-20T02:03:01;11.350000;;11.330000;10.760000;;;;;;
43196;SPS30;28816;49.852;18.282;2023-08-20T02:08:03;10.810000;;10.800000;10.250000;;;;;;
43196;SPS30;28816;49.852;18.282;2023-08-20T02:13:06;11.230000;;11.320000;10.490000;;;;;;
43196;SPS30;28816;49.852;18.282;2023-08-20T02:18:08;11.050000;;11.030000;10.490000;;;;;;
43196;SPS30;28816;49.852;18.282;2023-08-20T02:23:10;10.170000;;10.230000;9.540000;;;;;;
43196;SPS30;28816;49.852;18.282;2023-08-20T02:28:13;11.240000;;11.240000;10.660000;;;;;;
43196;SPS30;28816;49.852;18.282;2023-08-20T02:33:15;11.160000;;11.140000;10.580000;;;;;;
43196;SPS30;28816;49.852;18.282;2023-08-20T02:38:17;10.920000;;10.940000;10.290000;;;;;;
43196;SPS30;28816;49.852;18.282;2023-08-20T02:43:19;11.330000;;11.190000;10.690000;;;;;;
43196;SPS30;28816;49.852;18.282;2023-08-20T02:48:22;11.820000;;11.720000;11.240000;;;;;;
43196;SPS30;28816;49.852;18.282;2023-08-20T02:53:24;9.910000;;9.880000;9.390000;;;;;;
43196;SPS30;28816;49.852;18.282;2023-08-20T03:03:28;10.880000;;10.940000;10.290000;;;;;;
43196;SPS30;28816;49.852;18.282;2023-08-20T03:08:30;10.570000;;10.620000;10.010000;;;;;;
43196;SPS30;28816;49.852;18.282;2023-08-20T03:13:32;11.340000;;11.350000;10.760000;;;;;;
43196;SPS30;28816;49.852;18.282;2023-08-20T03:23:35;10.420000;;10.420000;9.850000;;;;;;
43196;SPS30;28816;49.852;18.282;2023-08-20T03:28:37;11.060000;;11.090000;10.450000;;;;;;
43196;SPS30;28816;49.852;18.282;2023-08-20T03:33:39;10.600000;;10.700000;9.970000;;;;;;
43196;SPS30;28816;49.852;18.282;2023-08-20T03:38:42;12.020000;;11.970000;11.400000;;;;;;
43196;SPS30;28816;49.852;18.282;2023-08-20T03:43:44;10.560000;;10.530000;10.050000;;;;;;
43196;SPS30;28816;49.852;18.282;2023-08-20T03:48:47;10.110000;;10.130000;9.550000;;;;;;
43196;SPS30;28816;49.852;18.282;2023-08-20T03:53:49;11.700000;;11.620000;11.130000;;;;;;
43196;SPS30;28816;49.852;18.282;2023-08-20T03:58:52;10.220000;;10.150000;9.700000;;;;;;
43196;SPS30;28816;49.852;18.282;2023-08-20T04:03:54;10.910000;;10.860000;10.370000;;;;;;
43196;SPS30;28816;49.852;18.282;2023-08-20T04:08:56;9.310000;;9.300000;8.820000;;;;;;
43196;SPS30;28816;49.852;18.282;2023-08-20T04:13:58;9.740000;;9.760000;9.230000;;;;;;
43196;SPS30;28816;49.852;18.282;2023-08-20T04:19:01;10.930000;;10.870000;10.360000;;;;;;
43196;SPS30;28816;49.852;18.282;2023-08-20T04:24:03;10.690000;;10.660000;10.110000;;;;;;
43196;SPS30;28816;49.852;18.282;2023-08-20T04:29:05;11.730000;;11.640000;11.190000;;;;;;
43196;SPS30;28816;49.852;18.282;2023-08-20T04:34:07;11.150000;;11.230000;10.500000;;;;;;
43196;SPS30;28816;49.852;18.282;2023-08-20T04:39:10;10.230000;;10.320000;9.630000;;;;;;
43196;SPS30;28816;49.852;18.282;2023-08-20T04:44:12;11.030000;;11.010000;10.470000;;;;;;
43196;SPS30;28816;49.852;18.282;2023-08-20T04:49:15;9.970000;;9.970000;9.400000;;;;;;
43196;SPS30;28816;49.852;18.282;2023-08-20T04:54:17;10.100000;;10.080000;9.550000;;;;;;
43196;SPS30;28816;49.852;18.282;2023-08-20T04:59:20;10.620000;;10.700000;10.010000;;;;;;
43196;SPS30;28816;49.852;18.282;2023-08-20T05:04:22;9.550000;;9.560000;8.990000;;;;;;
43196;SPS30;28816;49.852;18.282;2023-08-20T05:09:24;10.170000;;10.120000;9.680000;;;;;;
43196;SPS30;28816;49.852;18.282;2023-08-20T05:14:27;10.480000;;10.570000;9.830000;;;;;;
43196;SPS30;28816;49.852;18.282;2023-08-20T05:19:29;10.570000;;10.580000;9.980000;;;;;;
43196;SPS30;28816;49.852;18.282;2023-08-20T05:24:32;9.750000;;9.730000;9.220000;;;;;;
43196;SPS30;28816;49.852;18.282;2023-08-20T05:29:34;9.430000;;9.470000;8.850000;;;;;;
43196;SPS30;28816;49.852;18.282;2023-08-20T05:34:37;10.000000;;10.030000;9.420000;;;;;;
43196;SPS30;28816;49.852;18.282;2023-08-20T05:39:39;9.510000;;9.470000;9.010000;;;;;;
43196;SPS30;28816;49.852;18.282;2023-08-20T05:44:43;10.000000;;10.050000;9.410000;;;;;;
43196;SPS30;28816;49.852;18.282;2023-08-20T05:49:45;8.450000;;8.510000;7.970000;;;;;;
43196;SPS30;28816;49.852;18.282;2023-08-20T05:54:47;8.470000;;8.470000;8.040000;;;;;;
43196;SPS30;28816;49.852;18.282;2023-08-20T05:59:50;9.180000;;9.220000;8.640000;;;;;;
43196;SPS30;28816;49.852;18.282;2023-08-20T06:04:52;8.770000;;8.730000;8.360000;;;;;;
43196;SPS30;28816;49.852;18.282;2023-08-20T06:09:54;8.770000;;8.830000;8.280000;;;;;;
43196;SPS30;28816;49.852;18.282;2023-08-20T06:14:57;8.120000;;8.150000;7.700000;;;;;;
43196;SPS30;28816;49.852;18.282;2023-08-20T06:19:59;8.150000;;8.180000;7.730000;;;;;;
43196;SPS30;28816;49.852;18.282;2023-08-20T06:25:02;8.590000;;8.570000;8.170000;;;;;;
43196;SPS30;28816;49.852;18.282;2023-08-20T06:30:04;7.760000;;7.770000;7.300000;;;;;;
43196;SPS30;28816;49.852;18.282;2023-08-20T06:35:07;8.200000;;8.210000;7.720000;;;;;;
43196;SPS30;28816;49.852;18.282;2023-08-20T06:40:09;8.180000;;8.130000;7.800000;;;;;;
43196;SPS30;28816;49.852;18.282;2023-08-20T06:45:11;7.730000;;7.670000;7.360000;;;;;;
43196;SPS30;28816;49.852;18.282;2023-08-20T06:50:13;7.230000;;7.210000;6.840000;;;;;;
43196;SPS30;28816;49.852;18.282;2023-08-20T06:55:16;8.150000;;8.210000;7.690000;;;;;;
43196;SPS30;28816;49.852;18.282;2023-08-20T07:00:18;7.800000;;7.720000;7.430000;;;;;;
43196;SPS30;28816;49.852;18.282;2023-08-20T07:05:20;7.980000;;7.980000;7.570000;;;;;;
43196;SPS30;28816;49.852;18.282;2023-08-20T07:10:22;7.230000;;7.250000;6.830000;;;;;;
43196;SPS30;28816;49.852;18.282;2023-08-20T07:15:24;6.840000;;6.850000;6.500000;;;;;;
43196;SPS30;28816;49.852;18.282;2023-08-20T07:20:26;6.870000;;6.920000;6.460000;;;;;;
43196;SPS30;28816;49.852;18.282;2023-08-20T07:25:29;6.660000;;6.680000;6.310000;;;;;;
43196;SPS30;28816;49.852;18.282;2023-08-20T07:30:31;6.620000;;6.670000;6.280000;;;;;;
43196;SPS30;28816;49.852;18.282;2023-08-20T07:35:33;6.750000;;6.750000;6.390000;;;;;;
43196;SPS30;28816;49.852;18.282;2023-08-20T07:40:35;7.080000;;7.060000;6.690000;;;;;;
43196;SPS30;28816;49.852;18.282;2023-08-20T07:45:37;6.770000;;6.800000;6.350000;;;;;;
43196;SPS30;28816;49.852;18.282;2023-08-20T07:50:39;7.030000;;7.030000;6.690000;;;;;;
43196;SPS30;28816;49.852;18.282;2023-08-20T07:55:42;7.320000;;7.380000;6.850000;;;;;;
43196;SPS30;28816;49.852;18.282;2023-08-20T08:00:44;6.600000;;6.600000;6.200000;;;;;;
43196;SPS30;28816;49.852;18.282;2023-08-20T08:05:46;7.330000;;7.350000;6.930000;;;;;;
43196;SPS30;28816;49.852;18.282;2023-08-20T08:10:49;6.410000;;6.500000;5.980000;;;;;;
43196;SPS30;28816;49.852;18.282;2023-08-20T08:15:52;6.030000;;6.070000;5.720000;;;;;;
43196;SPS30;28816;49.852;18.282;2023-08-20T08:20:54;7.440000;;7.480000;6.990000;;;;;;
43196;SPS30;28816;49.852;18.282;2023-08-20T08:25:56;7.260000;;7.250000;6.870000;;;;;;
43196;SPS30;28816;49.852;18.282;2023-08-20T08:30:59;6.100000;;6.160000;5.680000;;;;;;
43196;SPS30;28816;49.852;18.282;2023-08-20T08:36:01;7.260000;;7.250000;6.890000;;;;;;
43196;SPS30;28816;49.852;18.282;2023-08-20T08:41:03;6.390000;;6.370000;6.060000;;;;;;
43196;SPS30;28816;49.852;18.282;2023-08-20T08:46:09;5.510000;;5.480000;5.180000;;;;;;
43196;SPS30;28816;49.852;18.282;2023-08-20T08:51:13;5.090000;;5.120000;4.820000;;;;;;
43196;SPS30;28816;49.852;18.282;2023-08-20T08:56:16;5.480000;;5.520000;5.120000;;;;;;
43196;SPS30;28816;49.852;18.282;2023-08-20T09:01:18;4.710000;;4.670000;4.490000;;;;;;
43196;SPS30;28816;49.852;18.282;2023-08-20T09:06:21;5.410000;;5.360000;5.140000;;;;;;
43196;SPS30;28816;49.852;18.282;2023-08-20T09:11:23;5.410000;;5.500000;5.040000;;;;;;
43196;SPS30;28816;49.852;18.282;2023-08-20T09:16:34;4.990000;;4.940000;4.770000;;;;;;
43196;SPS30;28816;49.852;18.282;2023-08-20T09:21:36;4.870000;;4.930000;4.560000;;;;;;
43196;SPS30;28816;49.852;18.282;2023-08-20T09:26:38;4.520000;;4.560000;4.250000;;;;;;
43196;SPS30;28816;49.852;18.282;2023-08-20T09:31:44;4.560000;;4.570000;4.310000;;;;;;
43196;SPS30;28816;49.852;18.282;2023-08-20T09:36:46;4.260000;;4.180000;4.090000;;;;;;
43196;SPS30;28816;49.852;18.282;2023-08-20T09:41:48;4.010000;;4.010000;3.780000;;;;;;
43196;SPS30;28816;49.852;18.282;2023-08-20T09:46:51;4.140000;;4.120000;3.930000;;;;;;
43196;SPS30;28816;49.852;18.282;2023-08-20T09:51:53;4.550000;;4.590000;4.270000;;;;;;
43196;SPS30;28816;49.852;18.282;2023-08-20T09:56:56;4.020000;;4.010000;3.820000;;;;;;
43196;SPS30;28816;49.852;18.282;2023-08-20T10:02:00;3.790000;;3.790000;3.560000;;;;;;
43196;SPS30;28816;49.852;18.282;2023-08-20T10:07:03;3.330000;;3.320000;3.150000;;;;;;
43196;SPS30;28816;49.852;18.282;2023-08-20T10:12:05;4.020000;;4.000000;3.800000;;;;;;
43196;SPS30;28816;49.852;18.282;2023-08-20T10:17:07;4.180000;;4.200000;3.910000;;;;;;
43196;SPS30;28816;49.852;18.282;2023-08-20T10:22:11;3.760000;;3.750000;3.550000;;;;;;
43196;SPS30;28816;49.852;18.282;2023-08-20T10:27:13;3.430000;;3.400000;3.240000;;;;;;
43196;SPS30;28816;49.852;18.282;2023-08-20T10:32:24;3.700000;;3.700000;3.530000;;;;;;
43196;SPS30;28816;49.852;18.282;2023-08-20T10:37:58;3.590000;;3.570000;3.380000;;;;;;
43196;SPS30;28816;49.852;18.282;2023-08-20T10:43:01;3.820000;;3.840000;3.580000;;;;;;
43196;SPS30;28816;49.852;18.282;2023-08-20T10:48:04;3.500000;;3.480000;3.310000;;;;;;
43196;SPS30;28816;49.852;18.282;2023-08-20T10:53:06;3.710000;;3.690000;3.530000;;;;;;
43196;SPS30;28816;49.852;18.282;2023-08-20T10:58:11;3.740000;;3.770000;3.490000;;;;;;
43196;SPS30;28816;49.852;18.282;2023-08-20T11:03:14;3.590000;;3.600000;3.390000;;;;;;
43196;SPS30;28816;49.852;18.282;2023-08-20T11:08:17;3.220000;;3.210000;3.040000;;;;;;
43196;SPS30;28816;49.852;18.282;2023-08-20T11:13:19;2.850000;;2.890000;2.680000;;;;;;
43196;SPS30;28816;49.852;18.282;2023-08-20T11:18:21;4.110000;;4.100000;3.890000;;;;;;
43196;SPS30;28816;49.852;18.282;2023-08-20T11:23:24;2.850000;;2.880000;2.650000;;;;;;
43196;SPS30;28816;49.852;18.282;2023-08-20T11:28:27;3.710000;;3.760000;3.480000;;;;;;
43196;SPS30;28816;49.852;18.282;2023-08-20T11:33:30;3.670000;;3.640000;3.510000;;;;;;
43196;SPS30;28816;49.852;18.282;2023-08-20T11:38:32;3.100000;;3.080000;2.960000;;;;;;
43196;SPS30;28816;49.852;18.282;2023-08-20T11:43:34;3.000000;;2.990000;2.840000;;;;;;
43196;SPS30;28816;49.852;18.282;2023-08-20T11:48:36;2.500000;;2.550000;2.350000;;;;;;
43196;SPS30;28816;49.852;18.282;2023-08-20T11:53:39;2.840000;;2.870000;2.660000;;;;;;
43196;SPS30;28816;49.852;18.282;2023-08-20T11:58:42;3.450000;;3.420000;3.270000;;;;;;
43196;SPS30;28816;49.852;18.282;2023-08-20T12:03:49;3.620000;;3.630000;3.410000;;;;;;
43196;SPS30;28816;49.852;18.282;2023-08-20T12:08:51;3.210000;;3.240000;3.010000;;;;;;
43196;SPS30;28816;49.852;18.282;2023-08-20T12:13:53;3.300000;;3.270000;3.140000;;;;;;
43196;SPS30;28816;49.852;18.282;2023-08-20T12:18:56;2.680000;;2.680000;2.530000;;;;;;
43196;SPS30;28816;49.852;18.282;2023-08-20T12:23:58;3.630000;;3.620000;3.440000;;;;;;
43196;SPS30;28816;49.852;18.282;2023-08-20T12:29:00;2.950000;;2.940000;2.780000;;;;;;
43196;SPS30;28816;49.852;18.282;2023-08-20T12:34:03;2.830000;;2.820000;2.680000;;;;;;
43196;SPS30;28816;49.852;18.282;2023-08-20T12:39:05;4.060000;;4.080000;3.850000;;;;;;
43196;SPS30;28816;49.852;18.282;2023-08-20T12:44:08;3.200000;;3.180000;3.060000;;;;;;
43196;SPS30;28816;49.852;18.282;2023-08-20T12:49:10;2.800000;;2.820000;2.630000;;;;;;
43196;SPS30;28816;49.852;18.282;2023-08-20T12:54:12;3.490000;;3.500000;3.300000;;;;;;
43196;SPS30;28816;49.852;18.282;2023-08-20T12:59:15;3.170000;;3.180000;2.980000;;;;;;
43196;SPS30;28816;49.852;18.282;2023-08-20T13:04:17;3.080000;;3.120000;2.900000;;;;;;
43196;SPS30;28816;49.852;18.282;2023-08-20T13:09:20;4.550000;;4.540000;4.270000;;;;;;
43196;SPS30;28816;49.852;18.282;2023-08-20T13:14:22;3.650000;;3.640000;3.460000;;;;;;
43196;SPS30;28816;49.852;18.282;2023-08-20T13:19:24;3.660000;;3.680000;3.470000;;;;;;
43196;SPS30;28816;49.852;18.282;2023-08-20T13:24:26;3.780000;;3.770000;3.570000;;;;;;
43196;SPS30;28816;49.852;18.282;2023-08-20T13:29:28;3.290000;;3.330000;3.100000;;;;;;
43196;SPS30;28816;49.852;18.282;2023-08-20T13:34:31;3.830000;;3.870000;3.580000;;;;;;
43196;SPS30;28816;49.852;18.282;2023-08-20T13:39:33;3.740000;;3.690000;3.590000;;;;;;
43196;SPS30;28816;49.852;18.282;2023-08-20T13:44:35;3.320000;;3.290000;3.160000;;;;;;
43196;SPS30;28816;49.852;18.282;2023-08-20T13:49:38;3.310000;;3.310000;3.110000;;;;;;
43196;SPS30;28816;49.852;18.282;2023-08-20T13:54:40;3.600000;;3.660000;3.370000;;;;;;
43196;SPS30;28816;49.852;18.282;2023-08-20T13:59:42;3.720000;;3.720000;3.560000;;;;;;
43196;SPS30;28816;49.852;18.282;2023-08-20T14:04:45;4.350000;;4.320000;4.120000;;;;;;
43196;SPS30;28816;49.852;18.282;2023-08-20T14:09:47;4.180000;;4.200000;3.940000;;;;;;
43196;SPS30;28816;49.852;18.282;2023-08-20T14:14:49;3.400000;;3.380000;3.230000;;;;;;
43196;SPS30;28816;49.852;18.282;2023-08-20T14:19:52;4.110000;;4.090000;3.890000;;;;;;
43196;SPS30;28816;49.852;18.282;2023-08-20T14:24:54;3.770000;;3.780000;3.580000;;;;;;
43196;SPS30;28816;49.852;18.282;2023-08-20T14:29:56;3.400000;;3.400000;3.230000;;;;;;
43196;SPS30;28816;49.852;18.282;2023-08-20T14:34:59;3.530000;;3.570000;3.300000;;;;;;
43196;SPS30;28816;49.852;18.282;2023-08-20T14:40:01;4.100000;;4.090000;3.880000;;;;;;
43196;SPS30;28816;49.852;18.282;2023-08-20T14:45:03;4.000000;;3.990000;3.790000;;;;;;
43196;SPS30;28816;49.852;18.282;2023-08-20T14:50:05;4.480000;;4.510000;4.190000;;;;;;
43196;SPS30;28816;49.852;18.282;2023-08-20T14:55:08;4.020000;;4.080000;3.800000;;;;;;
43196;SPS30;28816;49.852;18.282;2023-08-20T15:00:10;3.580000;;3.560000;3.390000;;;;;;
43196;SPS30;28816;49.852;18.282;2023-08-20T15:05:13;4.510000;;4.520000;4.230000;;;;;;
43196;SPS30;28816;49.852;18.282;2023-08-20T15:10:16;3.810000;;3.850000;3.600000;;;;;;
43196;SPS30;28816;49.852;18.282;2023-08-20T15:15:17;4.560000;;4.600000;4.270000;;;;;;
43196;SPS30;28816;49.852;18.282;2023-08-20T15:20:20;4.490000;;4.470000;4.240000;;;;;;
43196;SPS30;28816;49.852;18.282;2023-08-20T15:25:22;4.590000;;4.590000;4.350000;;;;;;
43196;SPS30;28816;49.852;18.282;2023-08-20T15:30:24;4.590000;;4.610000;4.300000;;;;;;
43196;SPS30;28816;49.852;18.282;2023-08-20T15:35:27;5.090000;;5.090000;4.800000;;;;;;
43196;SPS30;28816;49.852;18.282;2023-08-20T15:40:29;4.510000;;4.540000;4.220000;;;;;;
43196;SPS30;28816;49.852;18.282;2023-08-20T15:45:32;4.240000;;4.240000;4.020000;;;;;;
43196;SPS30;28816;49.852;18.282;2023-08-20T15:50:34;4.550000;;4.550000;4.330000;;;;;;
43196;SPS30;28816;49.852;18.282;2023-08-20T15:55:36;4.630000;;4.580000;4.420000;;;;;;
43196;SPS30;28816;49.852;18.282;2023-08-20T16:00:38;4.220000;;4.240000;3.990000;;;;;;
43196;SPS30;28816;49.852;18.282;2023-08-20T16:05:41;4.240000;;4.250000;3.990000;;;;;;
43196;SPS30;28816;49.852;18.282;2023-08-20T16:10:43;5.090000;;5.050000;4.820000;;;;;;
43196;SPS30;28816;49.852;18.282;2023-08-20T16:15:45;4.560000;;4.530000;4.340000;;;;;;
43196;SPS30;28816;49.852;18.282;2023-08-20T16:20:48;5.070000;;5.050000;4.800000;;;;;;
43196;SPS30;28816;49.852;18.282;2023-08-20T16:25:50;5.120000;;5.170000;4.810000;;;;;;
43196;SPS30;28816;49.852;18.282;2023-08-20T16:30:52;5.030000;;5.040000;4.770000;;;;;;
43196;SPS30;28816;49.852;18.282;2023-08-20T16:35:54;5.190000;;5.220000;4.860000;;;;;;
43196;SPS30;28816;49.852;18.282;2023-08-20T16:40:57;4.910000;;4.860000;4.700000;;;;;;
43196;SPS30;28816;49.852;18.282;2023-08-20T16:45:59;5.230000;;5.190000;4.990000;;;;;;
43196;SPS30;28816;49.852;18.282;2023-08-20T16:51:01;5.330000;;5.280000;5.100000;;;;;;
43196;SPS30;28816;49.852;18.282;2023-08-20T16:56:04;4.800000;;4.840000;4.460000;;;;;;
43196;SPS30;28816;49.852;18.282;2023-08-20T17:01:06;4.740000;;4.780000;4.450000;;;;;;
43196;SPS30;28816;49.852;18.282;2023-08-20T17:06:08;4.790000;;4.820000;4.520000;;;;;;
43196;SPS30;28816;49.852;18.282;2023-08-20T17:11:10;4.790000;;4.800000;4.510000;;;;;;
43196;SPS30;28816;49.852;18.282;2023-08-20T17:16:12;4.650000;;4.710000;4.360000;;;;;;
43196;SPS30;28816;49.852;18.282;2023-08-20T17:21:15;4.990000;;4.970000;4.730000;;;;;;
43196;SPS30;28816;49.852;18.282;2023-08-20T17:26:17;4.730000;;4.700000;4.520000;;;;;;
43196;SPS30;28816;49.852;18.282;2023-08-20T17:31:19;5.010000;;4.940000;4.790000;;;;;;
43196;SPS30;28816;49.852;18.282;2023-08-20T17:36:22;5.360000;;5.310000;5.110000;;;;;;
43196;SPS30;28816;49.852;18.282;2023-08-20T17:41:24;5.910000;;5.880000;5.630000;;;;;;
43196;SPS30;28816;49.852;18.282;2023-08-20T17:46:26;5.020000;;5.030000;4.730000;;;;;;
43196;SPS30;28816;49.852;18.282;2023-08-20T17:51:41;5.440000;;5.440000;5.130000;;;;;;
43196;SPS30;28816;49.852;18.282;2023-08-20T17:56:43;6.470000;;6.450000;6.110000;;;;;;
43196;SPS30;28816;49.852;18.282;2023-08-20T18:01:46;5.710000;;5.760000;5.360000;;;;;;
43196;SPS30;28816;49.852;18.282;2023-08-20T18:06:48;5.740000;;5.760000;5.430000;;;;;;
43196;SPS30;28816;49.852;18.282;2023-08-20T18:11:50;5.750000;;5.770000;5.410000;;;;;;
43196;SPS30;28816;49.852;18.282;2023-08-20T18:16:52;5.440000;;5.430000;5.130000;;;;;;
43196;SPS30;28816;49.852;18.282;2023-08-20T18:21:54;5.960000;;5.980000;5.590000;;;;;;
43196;SPS30;28816;49.852;18.282;2023-08-20T18:26:57;6.290000;;6.270000;5.950000;;;;;;
43196;SPS30;28816;49.852;18.282;2023-08-20T18:31:59;6.470000;;6.460000;6.120000;;;;;;
43196;SPS30;28816;49.852;18.282;2023-08-20T18:37:01;7.080000;;7.010000;6.780000;;;;;;
43196;SPS30;28816;49.852;18.282;2023-08-20T18:42:04;6.620000;;6.670000;6.210000;;;;;;
43196;SPS30;28816;49.852;18.282;2023-08-20T18:47:07;6.760000;;6.760000;6.370000;;;;;;
43196;SPS30;28816;49.852;18.282;2023-08-20T18:52:09;7.080000;;7.110000;6.660000;;;;;;
43196;SPS30;28816;49.852;18.282;2023-08-20T18:57:11;7.150000;;7.200000;6.670000;;;;;;
43196;SPS30;28816;49.852;18.282;2023-08-20T19:02:13;8.360000;;8.320000;7.920000;;;;;;
43196;SPS30;28816;49.852;18.282;2023-08-20T19:07:15;8.440000;;8.380000;8.070000;;;;;;
43196;SPS30;28816;49.852;18.282;2023-08-20T19:12:17;8.440000;;8.470000;7.960000;;;;;;
43196;SPS30;28816;49.852;18.282;2023-08-20T19:17:19;8.280000;;8.350000;7.800000;;;;;;
43196;SPS30;28816;49.852;18.282;2023-08-20T19:22:21;8.900000;;8.800000;8.500000;;;;;;
43196;SPS30;28816;49.852;18.282;2023-08-20T19:27:23;7.950000;;8.000000;7.430000;;;;;;
43196;SPS30;28816;49.852;18.282;2023-08-20T19:32:26;8.640000;;8.640000;8.170000;;;;;;
43196;SPS30;28816;49.852;18.282;2023-08-20T19:37:28;8.930000;;8.970000;8.340000;;;;;;
43196;SPS30;28816;49.852;18.282;2023-08-20T19:42:30;9.110000;;9.150000;8.540000;;;;;;
43196;SPS30;28816;49.852;18.282;2023-08-20T19:47:32;9.110000;;9.130000;8.660000;;;;;;
43196;SPS30;28816;49.852;18.282;2023-08-20T19:52:34;8.530000;;8.560000;8.070000;;;;;;
43196;SPS30;28816;49.852;18.282;2023-08-20T19:57:37;10.640000;;10.590000;10.070000;;;;;;
43196;SPS30;28816;49.852;18.282;2023-08-20T20:02:39;8.190000;;8.240000;7.720000;;;;;;
43196;SPS30;28816;49.852;18.282;2023-08-20T20:07:41;9.690000;;9.740000;9.130000;;;;;;
43196;SPS30;28816;49.852;18.282;2023-08-20T20:12:43;9.040000;;9.000000;8.590000;;;;;;
43196;SPS30;28816;49.852;18.282;2023-08-20T20:17:45;9.070000;;9.110000;8.520000;;;;;;
43196;SPS30;28816;49.852;18.282;2023-08-20T20:22:47;9.360000;;9.250000;8.920000;;;;;;
43196;SPS30;28816;49.852;18.282;2023-08-20T20:27:50;10.240000;;10.170000;9.730000;;;;;;
43196;SPS30;28816;49.852;18.282;2023-08-20T20:32:52;9.610000;;9.580000;9.120000;;;;;;
43196;SPS30;28816;49.852;18.282;2023-08-20T20:37:57;10.760000;;10.760000;10.150000;;;;;;
43196;SPS30;28816;49.852;18.282;2023-08-20T20:42:59;9.580000;;9.600000;9.100000;;;;;;
43196;SPS30;28816;49.852;18.282;2023-08-20T20:48:02;8.670000;;8.610000;8.220000;;;;;;
43196;SPS30;28816;49.852;18.282;2023-08-20T20:53:04;9.630000;;9.610000;9.110000;;;;;;
43196;SPS30;28816;49.852;18.282;2023-08-20T20:58:06;10.030000;;10.050000;9.480000;;;;;;
43196;SPS30;28816;49.852;18.282;2023-08-20T21:03:08;9.740000;;9.740000;9.240000;;;;;;
43196;SPS30;28816;49.852;18.282;2023-08-20T21:08:11;9.420000;;9.450000;8.860000;;;;;;
43196;SPS30;28816;49.852;18.282;2023-08-20T21:13:13;8.750000;;8.810000;8.210000;;;;;;
43196;SPS30;28816;49.852;18.282;2023-08-20T21:18:15;9.020000;;8.990000;8.550000;;;;;;
43196;SPS30;28816;49.852;18.282;2023-08-20T21:23:18;9.220000;;9.140000;8.800000;;;;;;
43196;SPS30;28816;49.852;18.282;2023-08-20T21:28:20;9.280000;;9.230000;8.800000;;;;;;
43196;SPS30;28816;49.852;18.282;2023-08-20T21:33:22;8.590000;;8.630000;8.040000;;;;;;
43196;SPS30;28816;49.852;18.282;2023-08-20T21:38:24;9.230000;;9.270000;8.660000;;;;;;
43196;SPS30;28816;49.852;18.282;2023-08-20T21:43:26;8.780000;;8.790000;8.270000;;;;;;
43196;SPS30;28816;49.852;18.282;2023-08-20T21:48:29;8.800000;;8.870000;8.330000;;;;;;
43196;SPS30;28816;49.852;18.282;2023-08-20T21:53:31;7.500000;;7.420000;7.120000;;;;;;
43196;SPS30;28816;49.852;18.282;2023-08-20T21:58:34;8.980000;;8.810000;8.350000;;;;;;
43196;SPS30;28816;49.852;18.282;2023-08-20T22:03:36;8.140000;;8.090000;7.720000;;;;;;
43196;SPS30;28816;49.852;18.282;2023-08-20T22:08:38;8.950000;;8.950000;8.500000;;;;;;
43196;SPS30;28816;49.852;18.282;2023-08-20T22:13:40;9.580000;;9.560000;9.100000;;;;;;
43196;SPS30;28816;49.852;18.282;2023-08-20T22:18:43;8.340000;;8.340000;7.850000;;;;;;
43196;SPS30;28816;49.852;18.282;2023-08-20T22:23:45;8.330000;;8.290000;7.960000;;;;;;
43196;SPS30;28816;49.852;18.282;2023-08-20T22:28:47;8.830000;;8.910000;8.340000;;;;;;
43196;SPS30;28816;49.852;18.282;2023-08-20T22:33:50;8.390000;;8.340000;7.990000;;;;;;
43196;SPS30;28816;49.852;18.282;2023-08-20T22:38:52;9.050000;;9.140000;8.510000;;;;;;
43196;SPS30;28816;49.852;18.282;2023-08-20T22:43:54;9.200000;;9.170000;8.730000;;;;;;
43196;SPS30;28816;49.852;18.282;2023-08-20T22:48:57;9.220000;;9.130000;8.780000;;;;;;
43196;SPS30;28816;49.852;18.282;2023-08-20T22:53:59;10.280000;;10.230000;9.720000;;;;;;
43196;SPS30;28816;49.852;18.282;2023-08-20T22:59:01;9.970000;;10.000000;9.390000;;;;;;
43196;SPS30;28816;49.852;18.282;2023-08-20T23:04:04;9.860000;;9.780000;9.390000;;;;;;
43196;SPS30;28816;49.852;18.282;2023-08-20T23:09:06;9.610000;;9.570000;9.100000;;;;;;
43196;SPS30;28816;49.852;18.282;2023-08-20T23:14:09;10.190000;;10.180000;9.680000;;;;;;
43196;SPS30;28816;49.852;18.282;2023-08-20T23:19:11;9.770000;;9.750000;9.300000;;;;;;